createdAt,value
2019-01-05T00:00:39.239Z,101842.43
2019-01-05T00:03:45.318Z,101836.05
2019-01-05T00:06:45.650Z,101841.50
2019-01-05T00:09:36.096Z,101852.10
2019-01-05T00:12:25.161Z,101826.75
2019-01-05T00:15:26.897Z,101819.26
2019-01-05T00:18:23.761Z,101818.95
2019-01-05T00:21:11.425Z,101811.72
2019-01-05T00:24:03.050Z,101801.44
2019-01-05T00:27:03.913Z,101794.27
2019-01-05T00:29:58.756Z,101794.27
2019-01-05T00:33:05.263Z,101789.78
2019-01-05T00:36:08.414Z,101782.47
2019-01-05T00:38:56.283Z,101770.17
2019-01-05T00:42:03.548Z,101771.89
2019-01-05T00:45:00.774Z,101770.67
2019-01-05T00:47:59.775Z,101757.84
2019-01-05T00:51:02.713Z,101756.08
2019-01-05T00:53:50.528Z,101736.44
2019-01-05T00:56:54.830Z,101740.33
2019-01-05T00:59:44.038Z,101736.02
2019-01-05T01:02:31.694Z,101745.64
2019-01-05T01:05:19.538Z,101741.39
2019-01-05T01:08:17.688Z,101736.51
2019-01-05T01:11:09.134Z,101741.86
2019-01-05T01:14:10.705Z,101734.64
2019-01-05T01:16:58.148Z,101747.97
2019-01-05T01:19:45.812Z,101761.16
2019-01-05T01:22:35.769Z,101763.19
2019-01-05T01:25:23.283Z,101741.86
2019-01-05T01:28:24.587Z,101747.74
2019-01-05T01:31:13.323Z,101753.40
2019-01-05T01:34:00.894Z,101750.00
2019-01-05T01:37:05.488Z,101757.27
2019-01-05T01:39:57.482Z,101772.20
2019-01-05T01:42:53.431Z,101749.66
2019-01-05T01:45:44.280Z,101748.43
2019-01-05T01:48:32.283Z,101753.47
2019-01-05T01:51:20.276Z,101731.61
2019-01-05T01:54:27.468Z,101713.27
2019-01-05T01:57:26.818Z,101706.23
2019-01-05T02:00:48.251Z,101696.95
2019-01-05T02:03:26.612Z,101698.28
2019-01-05T02:06:26.159Z,101697.41
2019-01-05T02:09:13.712Z,101696.48
2019-01-05T02:12:17.689Z,101700.00
2019-01-05T02:15:17.232Z,101688.95
2019-01-05T02:18:41.906Z,101681.05
2019-01-05T02:22:02.597Z,101679.33
2019-01-05T02:25:25.617Z,101685.94
2019-01-05T02:29:16.808Z,101676.84
2019-01-05T02:32:41.776Z,101677.27
2019-01-05T02:35:54.646Z,101667.70
2019-01-05T02:39:26.586Z,101660.98
2019-01-05T02:42:50.752Z,101669.31
2019-01-05T02:46:12.830Z,101669.92
2019-01-05T02:49:51.682Z,101664.61
2019-01-05T02:53:09.641Z,101663.55
2019-01-05T02:56:28.351Z,101657.28
2019-01-05T02:59:57.147Z,101658.73
2019-01-05T03:03:22.385Z,101647.38
2019-01-05T03:06:36.937Z,101662.24
2019-01-05T03:10:00.088Z,101651.12
2019-01-05T03:13:31.849Z,101648.80
2019-01-05T03:16:40.509Z,101655.41
2019-01-05T03:20:12.201Z,101653.80
2019-01-05T03:23:37.176Z,101647.19
2019-01-05T03:27:01.215Z,101634.12
2019-01-05T03:30:45.455Z,101625.56
2019-01-05T03:34:14.911Z,101626.90
2019-01-05T03:37:28.164Z,101622.91
2019-01-05T03:40:34.544Z,101629.02
2019-01-05T03:44:25.261Z,101609.09
2019-01-05T03:47:44.129Z,101588.64
2019-01-05T03:51:13.115Z,101582.39
2019-01-05T03:54:32.193Z,101587.72
2019-01-05T03:57:55.836Z,101592.34
2019-01-05T04:01:20.957Z,101594.02
2019-01-05T04:05:07.004Z,101596.05
2019-01-05T04:08:48.853Z,101584.03
2019-01-05T04:12:11.025Z,101584.77
2019-01-05T04:15:28.577Z,101594.12
2019-01-05T04:18:58.169Z,101596.89
2019-01-05T04:22:27.715Z,101592.59
2019-01-05T04:26:09.509Z,101594.45
2019-01-05T04:29:22.411Z,101595.09
2019-01-05T04:33:02.817Z,101599.19
2019-01-05T04:36:42.318Z,101598.88
2019-01-05T04:40:02.677Z,101595.77
2019-01-05T04:43:34.630Z,101610.80
2019-01-05T04:46:59.458Z,101587.77
2019-01-05T04:50:08.948Z,101600.17
2019-01-05T04:53:35.217Z,101595.66
2019-01-05T04:57:05.716Z,101591.14
2019-01-05T05:00:32.456Z,101596.59
2019-01-05T05:04:14.578Z,101599.50
2019-01-05T05:07:43.599Z,101605.25
2019-01-05T05:11:21.324Z,101596.39
2019-01-05T05:14:39.972Z,101583.00
2019-01-05T05:18:31.083Z,101588.91
2019-01-05T05:22:07.412Z,101583.24
2019-01-05T05:25:47.409Z,101576.01
2019-01-05T05:29:28.681Z,101576.03
2019-01-05T05:32:49.816Z,101589.91
2019-01-05T05:36:14.835Z,101595.80
2019-01-05T05:39:48.408Z,101603.41
2019-01-05T05:43:17.219Z,101610.00
2019-01-05T05:46:41.142Z,101588.35
2019-01-05T05:50:31.218Z,101596.81
2019-01-05T05:54:01.721Z,101598.64
2019-01-05T05:57:18.989Z,101587.59
2019-01-05T06:01:00.927Z,101608.45
2019-01-05T06:04:35.410Z,101601.47
2019-01-05T06:08:04.154Z,101610.84
2019-01-05T06:11:26.346Z,101609.00
2019-01-05T06:14:54.084Z,101617.12
2019-01-05T06:18:29.136Z,101621.52
2019-01-05T06:22:03.816Z,101621.44
2019-01-05T06:25:28.409Z,101628.71
2019-01-05T06:28:44.223Z,101626.70
2019-01-05T06:32:18.540Z,101636.87
2019-01-05T06:35:58.508Z,101639.84
2019-01-05T06:39:36.813Z,101647.00
2019-01-05T06:43:03.157Z,101660.55
2019-01-05T06:46:28.649Z,101664.64
2019-01-05T06:49:58.264Z,101668.21
2019-01-05T06:53:42.430Z,101669.46
2019-01-05T06:57:10.981Z,101669.77
2019-01-05T07:00:39.635Z,101669.07
2019-01-05T07:04:03.022Z,101667.66
2019-01-05T07:07:42.566Z,101669.72
2019-01-05T07:11:16.410Z,101669.31
2019-01-05T07:15:06.152Z,101671.11
2019-01-05T07:18:50.097Z,101678.58
2019-01-05T07:22:30.982Z,101677.19
2019-01-05T07:26:13.662Z,101677.63
2019-01-05T07:29:54.150Z,101686.80
2019-01-05T07:33:30.311Z,101692.09
2019-01-05T07:36:54.800Z,101702.22
2019-01-05T07:40:29.302Z,101703.02
2019-01-05T07:43:54.128Z,101702.52
2019-01-05T07:47:26.325Z,101715.13
2019-01-05T07:50:42.325Z,101702.89
2019-01-05T07:53:55.797Z,101713.00
2019-01-05T07:57:33.882Z,101716.39
2019-01-05T08:00:58.945Z,101724.47
2019-01-05T08:04:42.084Z,101725.27
2019-01-05T08:08:04.103Z,101722.59
2019-01-05T08:11:30.570Z,101737.66
2019-01-05T08:15:04.542Z,101736.93
2019-01-05T08:18:40.419Z,101750.95
2019-01-05T08:22:04.706Z,101753.86
2019-01-05T08:25:44.259Z,101753.75
2019-01-05T08:29:03.345Z,101749.05
2019-01-05T08:32:10.816Z,101761.97
2019-01-05T08:35:32.215Z,101766.25
2019-01-05T08:39:04.912Z,101764.65
2019-01-05T08:42:34.056Z,101757.12
2019-01-05T08:46:11.846Z,101761.66
2019-01-05T08:49:37.810Z,101767.55
2019-01-05T08:52:47.215Z,101776.73
2019-01-05T08:56:17.774Z,101775.02
2019-01-05T08:59:47.857Z,101774.98
2019-01-05T09:03:15.527Z,101777.23
2019-01-05T09:06:38.608Z,101773.33
2019-01-05T09:10:02.725Z,101781.97
2019-01-05T09:13:40.054Z,101770.27
2019-01-05T09:16:58.217Z,101772.83
2019-01-05T09:20:26.455Z,101778.19
2019-01-05T09:23:57.396Z,101774.20
2019-01-05T09:27:42.514Z,101782.27
2019-01-05T09:31:06.374Z,101785.64
2019-01-05T09:34:54.298Z,101787.33
2019-01-05T09:38:23.228Z,101784.30
2019-01-05T09:42:13.554Z,101781.97
2019-01-05T09:46:01.520Z,101781.97
2019-01-05T09:49:29.829Z,101777.75
2019-01-05T09:52:53.876Z,101778.48
2019-01-05T09:56:30.190Z,101781.97
2019-01-05T09:59:35.085Z,101787.97
2019-01-05T10:03:18.898Z,101782.47
2019-01-05T10:07:03.145Z,101787.59
2019-01-05T10:10:23.106Z,101791.84
2019-01-05T10:13:55.043Z,101793.13
2019-01-05T10:17:47.397Z,101805.18
2019-01-05T10:21:47.188Z,101811.00
2019-01-05T10:25:14.935Z,101809.51
2019-01-05T10:28:56.539Z,101814.44
2019-01-05T10:32:40.406Z,101811.34
2019-01-05T10:35:52.494Z,101803.27
2019-01-05T10:39:11.767Z,101808.77
2019-01-05T10:42:46.789Z,101801.19
2019-01-05T10:46:07.143Z,101797.92
2019-01-05T10:49:37.406Z,101799.77
2019-01-05T10:53:21.180Z,101798.88
2019-01-05T10:56:31.431Z,101803.73
2019-01-05T10:59:55.639Z,101793.85
2019-01-05T11:03:32.883Z,101801.69
2019-01-05T11:07:15.763Z,101801.47
2019-01-05T11:11:08.589Z,101799.34
2019-01-05T11:14:36.002Z,101808.92
2019-01-05T11:18:00.931Z,101802.95
2019-01-05T11:21:40.822Z,101793.07
2019-01-05T11:24:47.269Z,101791.62
2019-01-05T11:28:07.731Z,101794.61
2019-01-05T11:31:55.766Z,101796.56
2019-01-05T11:35:33.191Z,101800.41
2019-01-05T11:39:02.612Z,101808.72
2019-01-05T11:42:39.390Z,101813.91
2019-01-05T11:46:07.985Z,101804.00
2019-01-05T11:49:40.715Z,101809.48
2019-01-05T11:53:17.803Z,101809.56
2019-01-05T11:56:27.418Z,101811.71
2019-01-05T12:00:12.478Z,101815.76
2019-01-05T12:03:34.166Z,101809.78
2019-01-05T12:06:52.826Z,101820.92
2019-01-05T12:10:33.947Z,101815.20
2019-01-05T12:13:50.666Z,101807.77
2019-01-05T12:17:44.932Z,101802.75
2019-01-05T12:21:06.673Z,101804.13
2019-01-05T12:24:39.205Z,101795.05
2019-01-05T12:28:12.860Z,101805.21
2019-01-05T12:31:58.337Z,101795.75
2019-01-05T12:35:12.605Z,101802.22
2019-01-05T12:38:37.579Z,101818.48
2019-01-05T12:42:01.168Z,101818.52
2019-01-05T12:45:19.647Z,101822.27
2019-01-05T12:48:52.616Z,101828.70
2019-01-05T12:52:26.024Z,101818.33
2019-01-05T12:55:54.479Z,101826.48
2019-01-05T12:59:31.663Z,101825.80
2019-01-05T13:03:03.109Z,101818.33
2019-01-05T13:06:53.396Z,101831.77
2019-01-05T13:10:17.009Z,101831.34
2019-01-05T13:13:39.700Z,101837.43
2019-01-05T13:17:07.878Z,101853.54
2019-01-05T13:20:48.870Z,101848.59
2019-01-05T13:24:26.191Z,101857.09
2019-01-05T13:27:38.628Z,101854.45
2019-01-05T13:31:18.371Z,101853.80
2019-01-05T13:34:52.632Z,101849.83
2019-01-05T13:38:22.465Z,101857.28
2019-01-05T13:41:48.348Z,101876.34
2019-01-05T13:45:29.040Z,101882.13
2019-01-05T13:49:04.025Z,101875.73
2019-01-05T13:52:09.038Z,101875.08
2019-01-05T13:54:58.396Z,101881.51
2019-01-05T13:57:45.738Z,101872.08
2019-01-05T14:00:40.662Z,101877.98
2019-01-05T14:03:27.874Z,101883.95
2019-01-05T14:06:22.661Z,101884.45
2019-01-05T14:09:14.656Z,101892.45
2019-01-05T14:12:02.425Z,101892.19
2019-01-05T14:14:45.196Z,101897.84
2019-01-05T14:17:40.331Z,101901.28
2019-01-05T14:20:25.068Z,101896.20
2019-01-05T14:23:13.311Z,101906.16
2019-01-05T14:26:11.497Z,101906.23
2019-01-05T14:28:58.978Z,101905.53
2019-01-05T14:31:46.455Z,101914.42
2019-01-05T14:34:38.012Z,101899.41
2019-01-05T14:37:38.780Z,101908.37
2019-01-05T14:40:33.689Z,101918.81
2019-01-05T14:43:22.347Z,101915.83
2019-01-05T14:46:11.063Z,101917.40
2019-01-05T14:49:18.064Z,101920.02
2019-01-05T14:52:05.896Z,101927.05
2019-01-05T14:55:03.204Z,101925.02
2019-01-05T14:57:50.697Z,101926.02
2019-01-05T15:00:54.680Z,101932.94
2019-01-05T15:03:46.436Z,101936.62
2019-01-05T15:06:34.027Z,101940.22
2019-01-05T15:09:26.648Z,101945.50
2019-01-05T15:12:13.964Z,101938.50
2019-01-05T15:15:01.920Z,101934.52
2019-01-05T15:17:56.972Z,101940.80
2019-01-05T15:20:48.036Z,101944.31
2019-01-05T15:23:31.323Z,101943.89
2019-01-05T15:26:32.086Z,101941.20
2019-01-05T15:29:20.792Z,101951.61
2019-01-05T15:32:09.473Z,101944.23
2019-01-05T15:34:53.708Z,101942.52
2019-01-05T15:37:37.866Z,101944.84
2019-01-05T15:40:30.018Z,101948.02
2019-01-05T15:43:15.597Z,101948.10
2019-01-05T15:46:13.233Z,101953.94
2019-01-05T15:49:05.039Z,101952.11
2019-01-05T15:51:55.057Z,101960.45
2019-01-05T15:54:49.936Z,101969.52
2019-01-05T15:57:37.264Z,101976.16
2019-01-05T16:00:33.744Z,101979.02
2019-01-05T16:03:37.557Z,101974.35
2019-01-05T16:06:21.306Z,101972.22
2019-01-05T16:09:08.749Z,101980.13
2019-01-05T16:12:10.165Z,101982.67
2019-01-05T16:14:57.579Z,101984.34
2019-01-05T16:18:00.052Z,101991.69
2019-01-05T16:20:50.152Z,101988.33
2019-01-05T16:23:34.199Z,101991.73
2019-01-05T16:26:21.988Z,101990.96
2019-01-05T16:29:17.099Z,101990.05
2019-01-05T16:32:04.847Z,101993.70
2019-01-05T16:34:59.828Z,101986.95
2019-01-05T16:38:05.266Z,101984.39
2019-01-05T16:40:51.869Z,101983.30
2019-01-05T16:43:46.640Z,101985.05
2019-01-05T16:46:27.606Z,101988.34
2019-01-05T16:49:15.378Z,101989.13
2019-01-05T16:52:07.759Z,101987.13
2019-01-05T16:54:59.736Z,101993.82
2019-01-05T16:57:47.050Z,101997.12
2019-01-05T17:00:41.751Z,101996.17
2019-01-05T17:03:28.544Z,101994.05
2019-01-05T17:06:15.958Z,102006.53
2019-01-05T17:09:04.703Z,102006.53
2019-01-05T17:11:48.989Z,102000.02
2019-01-05T17:14:36.588Z,102004.47
2019-01-05T17:17:32.923Z,102003.17
2019-01-05T17:20:20.511Z,102017.33
2019-01-05T17:23:08.120Z,102014.34
2019-01-05T17:25:56.195Z,102014.52
2019-01-05T17:28:43.427Z,102008.49
2019-01-05T17:31:31.126Z,102014.81
2019-01-05T17:34:28.940Z,102016.20
2019-01-05T17:37:27.041Z,102011.72
2019-01-05T17:40:12.264Z,102017.17
2019-01-05T17:43:00.794Z,102024.97
2019-01-05T17:45:41.745Z,102033.36
2019-01-05T17:48:30.447Z,102029.53
2019-01-05T17:51:31.138Z,102025.41
2019-01-05T17:54:16.653Z,102028.64
2019-01-05T17:57:02.897Z,102034.58
2019-01-05T18:00:03.282Z,102034.95
2019-01-05T18:02:50.693Z,102036.52
2019-01-05T18:05:45.252Z,102042.30
2019-01-05T18:08:25.977Z,102039.56
2019-01-05T18:11:17.424Z,102039.09
2019-01-05T18:14:13.552Z,102035.95
2019-01-05T18:17:01.156Z,102046.44
2019-01-05T18:19:56.063Z,102043.23
2019-01-05T18:22:51.415Z,102045.11
2019-01-05T18:25:39.162Z,102043.58
2019-01-05T18:28:30.961Z,102053.23
2019-01-05T18:31:15.707Z,102056.19
2019-01-05T18:34:04.460Z,102059.18
2019-01-05T18:36:53.177Z,102061.59
2019-01-05T18:39:43.954Z,102059.27
2019-01-05T18:42:35.535Z,102066.33
2019-01-05T18:45:23.517Z,102074.63
2019-01-05T18:48:08.020Z,102068.36
2019-01-05T18:50:51.025Z,102073.72
2019-01-05T18:53:38.325Z,102072.88
2019-01-05T18:56:30.004Z,102073.44
2019-01-05T18:59:11.337Z,102069.89
2019-01-05T19:02:05.870Z,102071.23
2019-01-05T19:04:53.139Z,102065.65
2019-01-05T19:07:54.119Z,102067.71
2019-01-05T19:10:42.840Z,102068.86
2019-01-05T19:13:30.216Z,102075.19
2019-01-05T19:16:29.746Z,102076.70
2019-01-05T19:19:24.533Z,102066.24
2019-01-05T19:22:19.357Z,102074.16
2019-01-05T19:25:13.230Z,102080.60
2019-01-05T19:28:00.404Z,102081.41
2019-01-05T19:30:47.965Z,102080.85
2019-01-05T19:33:39.647Z,102079.28
2019-01-05T19:36:43.579Z,102077.73
2019-01-05T19:39:38.179Z,102068.70
2019-01-05T19:42:39.474Z,102078.23
2019-01-05T19:45:34.616Z,102085.05
2019-01-05T19:48:20.492Z,102086.91
2019-01-05T19:51:08.031Z,102093.92
2019-01-05T19:54:04.727Z,102092.65
2019-01-05T19:57:08.039Z,102092.59
2019-01-05T20:00:02.557Z,102094.95
2019-01-05T20:02:46.524Z,102095.39
2019-01-05T20:05:35.201Z,102104.64
2019-01-05T20:08:30.012Z,102099.97
2019-01-05T20:11:24.737Z,102106.54
2019-01-05T20:14:14.339Z,102109.41
2019-01-05T20:17:15.016Z,102113.55
2019-01-05T20:19:57.611Z,102105.84
2019-01-05T20:22:44.967Z,102118.22
2019-01-05T20:25:39.683Z,102116.75
2019-01-05T20:28:34.548Z,102120.48
2019-01-05T20:31:26.105Z,102120.56
2019-01-05T20:34:11.005Z,102117.77
2019-01-05T20:36:59.661Z,102119.56
2019-01-05T20:39:48.317Z,102134.30
2019-01-05T20:42:35.910Z,102139.22
2019-01-05T20:45:34.174Z,102131.42
2019-01-05T20:48:21.540Z,102127.90
2019-01-05T20:51:25.672Z,102129.09
2019-01-05T20:54:12.970Z,102130.63
2019-01-05T20:57:01.660Z,102134.57
2019-01-05T20:59:49.224Z,102136.33
2019-01-05T21:02:43.724Z,102137.58
2019-01-05T21:05:35.843Z,102150.77
2019-01-05T21:08:27.814Z,102145.95
2019-01-05T21:11:22.439Z,102144.22
2019-01-05T21:14:09.753Z,102138.59
2019-01-05T21:16:57.589Z,102137.83
2019-01-05T21:19:49.127Z,102157.42
2019-01-05T21:22:36.678Z,102152.11
2019-01-05T21:25:24.376Z,102151.27
2019-01-05T21:28:15.913Z,102147.60
2019-01-05T21:31:19.897Z,102151.36
2019-01-05T21:34:13.361Z,102151.36
2019-01-05T21:37:11.390Z,102154.79
2019-01-05T21:40:00.130Z,102159.38
2019-01-05T21:42:41.777Z,102156.34
2019-01-05T21:45:48.652Z,102147.33
2019-01-05T21:48:43.376Z,102147.24
2019-01-05T21:51:38.212Z,102142.47
2019-01-05T21:54:45.156Z,102142.38
2019-01-05T21:57:52.377Z,102145.11
2019-01-05T22:00:53.256Z,102150.23
2019-01-05T22:03:42.019Z,102148.76
2019-01-05T22:06:45.815Z,102149.88
2019-01-05T22:09:33.227Z,102154.38
2019-01-05T22:12:20.559Z,102158.66
2019-01-05T22:15:09.231Z,102161.25
2019-01-05T22:17:57.863Z,102168.16
2019-01-05T22:20:52.539Z,102157.55
2019-01-05T22:23:47.066Z,102164.50
2019-01-05T22:26:50.873Z,102169.36
2019-01-05T22:29:39.546Z,102167.09
2019-01-05T22:32:43.961Z,102177.70
2019-01-05T22:35:29.699Z,102178.85
2019-01-05T22:38:11.603Z,102177.11
2019-01-05T22:40:59.833Z,102185.30
2019-01-05T22:43:45.594Z,102182.68
2019-01-05T22:46:36.127Z,102187.90
2019-01-05T22:49:34.483Z,102185.86
2019-01-05T22:52:21.802Z,102183.17
2019-01-05T22:55:13.458Z,102182.09
2019-01-05T22:58:02.132Z,102180.51
2019-01-05T23:00:45.372Z,102189.28
2019-01-05T23:03:43.395Z,102189.23
2019-01-05T23:06:30.973Z,102190.58
2019-01-05T23:09:22.639Z,102191.16
2019-01-05T23:12:14.043Z,102191.53
2019-01-05T23:15:05.267Z,102195.41
2019-01-05T23:18:09.382Z,102191.00
2019-01-05T23:20:58.061Z,102184.57
2019-01-05T23:23:52.438Z,102193.05
2019-01-05T23:27:03.528Z,102193.97
2019-01-05T23:30:19.414Z,102198.81
2019-01-05T23:33:25.804Z,102201.08
2019-01-05T23:36:15.563Z,102199.69
2019-01-05T23:39:21.456Z,102203.07
2019-01-05T23:42:22.262Z,102199.63
2019-01-05T23:45:25.272Z,102203.91
2019-01-05T23:48:27.946Z,102203.06
2019-01-05T23:51:20.306Z,102203.56
2019-01-05T23:54:16.788Z,102204.54
2019-01-05T23:57:15.682Z,102199.52
